createdAt,value
2023-02-13T00:00:54.467Z,3.67
2023-02-13T00:03:21.848Z,3.50
2023-02-13T00:05:49.213Z,3.97
2023-02-13T00:08:16.559Z,3.03
2023-02-13T00:10:43.925Z,3.77
2023-02-13T00:13:11.261Z,3.07
2023-02-13T00:15:38.652Z,2.40
2023-02-13T00:18:06.121Z,3.37
2023-02-13T00:20:33.721Z,3.43
2023-02-13T00:23:01.163Z,3.20
2023-02-13T00:25:28.545Z,4.40
2023-02-13T00:27:55.877Z,4.83
2023-02-13T00:30:23.292Z,3.40
2023-02-13T00:32:51.934Z,3.53
2023-02-13T00:35:19.424Z,3.67
2023-02-13T00:37:46.775Z,3.57
2023-02-13T00:40:14.328Z,3.97
2023-02-13T00:42:41.660Z,3.20
2023-02-13T00:45:09.189Z,4.30
2023-02-13T00:47:36.633Z,2.73
2023-02-13T00:50:03.769Z,3.07
2023-02-13T00:52:31.205Z,2.97
2023-02-13T00:54:58.549Z,4.37
2023-02-13T00:57:25.927Z,3.33
2023-02-13T00:59:53.331Z,2.93
2023-02-13T01:02:20.701Z,3.67
2023-02-13T01:04:48.050Z,3.33
2023-02-13T01:07:16.686Z,3.27
2023-02-13T01:09:44.785Z,2.93
2023-02-13T01:12:12.345Z,3.63
2023-02-13T01:14:39.694Z,3.17
2023-02-13T01:17:07.068Z,3.43
2023-02-13T01:19:34.496Z,3.60
2023-02-13T01:22:01.848Z,3.63
2023-02-13T01:24:30.015Z,3.83
2023-02-13T01:26:58.993Z,3.43
2023-02-13T01:29:26.330Z,3.47
2023-02-13T01:31:53.803Z,3.17
2023-02-13T01:34:21.157Z,4.10
2023-02-13T01:36:50.589Z,3.57
2023-02-13T01:39:17.927Z,5.00
2023-02-13T01:41:45.263Z,3.93
2023-02-13T01:44:57.624Z,4.23
2023-02-13T01:47:41.253Z,2.67
2023-02-13T01:50:20.623Z,2.77
2023-02-13T01:52:58.106Z,4.20
2023-02-13T01:55:26.438Z,3.97
2023-02-13T01:58:03.276Z,3.77
2023-02-13T02:00:30.731Z,4.53
2023-02-13T02:03:16.183Z,2.43
2023-02-13T02:05:43.890Z,3.17
2023-02-13T02:08:14.379Z,4.23
2023-02-13T02:10:41.944Z,3.23
2023-02-13T02:13:19.450Z,3.67
2023-02-13T02:15:48.721Z,3.13
2023-02-13T02:18:24.639Z,3.50
2023-02-13T02:21:10.116Z,3.63
2023-02-13T02:24:11.179Z,4.60
2023-02-13T02:27:22.897Z,4.27
2023-02-13T02:30:40.793Z,3.93
2023-02-13T02:33:40.422Z,3.33
2023-02-13T02:36:23.172Z,3.33
2023-02-13T02:38:58.842Z,4.38
2023-02-13T02:42:18.653Z,4.60
2023-02-13T02:45:08.915Z,4.03
2023-02-13T02:48:20.654Z,4.20
2023-02-13T02:50:56.986Z,4.60
2023-02-13T02:53:48.155Z,4.70
2023-02-13T02:56:31.421Z,4.00
2023-02-13T02:59:26.072Z,4.10
2023-02-13T03:02:13.502Z,3.50
2023-02-13T03:05:07.695Z,3.33
2023-02-13T03:07:35.017Z,3.77
2023-02-13T03:10:31.440Z,4.93
2023-02-13T03:13:20.845Z,3.97
2023-02-13T03:16:15.384Z,4.57
2023-02-13T03:19:06.179Z,4.83
2023-02-13T03:22:19.721Z,4.37
2023-02-13T03:25:18.794Z,5.13
2023-02-13T03:28:26.482Z,5.53
2023-02-13T03:31:31.185Z,3.53
2023-02-13T03:33:58.482Z,4.17
2023-02-13T03:36:44.320Z,5.03
2023-02-13T03:39:24.521Z,4.80
2023-02-13T03:42:04.876Z,5.93
2023-02-13T03:44:47.024Z,6.00
2023-02-13T03:47:14.907Z,3.63
2023-02-13T03:50:06.400Z,4.83
2023-02-13T03:52:44.006Z,4.20
2023-02-13T03:55:54.289Z,4.27
2023-02-13T03:58:46.721Z,5.03
2023-02-13T04:01:17.621Z,4.35
2023-02-13T04:04:05.352Z,4.03
2023-02-13T04:06:40.453Z,4.03
2023-02-13T04:09:07.814Z,5.70
2023-02-13T04:11:43.468Z,5.53
2023-02-13T04:14:26.888Z,5.83
2023-02-13T04:17:12.672Z,4.53
2023-02-13T04:19:40.256Z,6.13
2023-02-13T04:22:07.586Z,6.23
2023-02-13T04:24:34.928Z,4.77
2023-02-13T04:27:02.365Z,5.37
2023-02-13T04:29:29.774Z,5.43
2023-02-13T04:31:57.171Z,5.33
2023-02-13T04:34:24.579Z,6.50
2023-02-13T04:36:51.928Z,4.30
2023-02-13T04:39:19.293Z,5.43
2023-02-13T04:41:46.712Z,4.30
2023-02-13T04:44:14.043Z,4.77
2023-02-13T04:46:41.388Z,4.60
2023-02-13T04:49:09.845Z,5.20
2023-02-13T04:51:37.234Z,4.17
2023-02-13T04:54:04.713Z,4.97
2023-02-13T04:56:32.155Z,5.30
2023-02-13T04:58:59.501Z,4.77
2023-02-13T05:01:26.933Z,5.67
2023-02-13T05:03:54.335Z,4.83
2023-02-13T05:06:21.773Z,5.60
2023-02-13T05:08:49.123Z,4.30
2023-02-13T05:11:16.491Z,5.40
2023-02-13T05:13:43.832Z,5.10
2023-02-13T05:16:11.211Z,4.60
2023-02-13T05:18:38.590Z,7.30
2023-02-13T05:21:24.694Z,5.37
2023-02-13T05:23:52.124Z,5.27
2023-02-13T05:26:19.601Z,4.93
2023-02-13T05:29:05.452Z,5.10
2023-02-13T05:31:32.877Z,4.83
2023-02-13T05:34:01.159Z,6.17
2023-02-13T05:36:28.095Z,6.50
2023-02-13T05:38:55.499Z,5.80
2023-02-13T05:41:22.461Z,5.13
2023-02-13T05:43:49.804Z,5.43
2023-02-13T05:46:17.225Z,5.33
2023-02-13T05:48:44.597Z,5.33
2023-02-13T05:51:12.215Z,5.10
2023-02-13T05:53:39.659Z,6.47
2023-02-13T05:56:07.576Z,6.53
2023-02-13T05:58:35.298Z,7.43
2023-02-13T06:01:03.088Z,5.90
2023-02-13T06:03:32.552Z,7.00
2023-02-13T06:06:00.736Z,6.83
2023-02-13T06:08:28.141Z,6.87
2023-02-13T06:10:55.501Z,7.23
2023-02-13T06:13:22.523Z,9.07
2023-02-13T06:15:50.831Z,10.23
2023-02-13T06:18:17.922Z,8.47
2023-02-13T06:20:45.301Z,7.53
2023-02-13T06:23:12.321Z,8.57
2023-02-13T06:25:39.831Z,9.53
2023-02-13T06:28:07.510Z,8.50
2023-02-13T06:30:35.093Z,6.90
2023-02-13T06:33:02.597Z,7.90
2023-02-13T06:35:30.022Z,6.37
2023-02-13T06:37:57.430Z,8.70
2023-02-13T06:40:24.853Z,6.03
2023-02-13T06:42:52.223Z,6.67
2023-02-13T06:45:19.543Z,6.40
2023-02-13T06:47:48.444Z,8.20
2023-02-13T06:50:17.025Z,6.20
2023-02-13T06:52:52.212Z,8.57
2023-02-13T06:55:20.850Z,8.87
2023-02-13T06:57:48.524Z,8.77
2023-02-13T07:00:18.021Z,6.80
2023-02-13T07:02:47.448Z,8.40
2023-02-13T07:05:15.292Z,7.97
2023-02-13T07:07:43.400Z,6.07
2023-02-13T07:10:13.420Z,7.47
2023-02-13T07:12:41.032Z,6.73
2023-02-13T07:15:08.779Z,6.27
2023-02-13T07:17:36.133Z,8.93
2023-02-13T07:20:04.675Z,6.80
2023-02-13T07:22:35.048Z,6.30
2023-02-13T07:25:02.630Z,7.17
2023-02-13T07:27:30.094Z,8.70
2023-02-13T07:29:57.824Z,5.90
2023-02-13T07:32:25.828Z,6.57
2023-02-13T07:35:01.586Z,5.63
2023-02-13T07:37:32.886Z,4.47
2023-02-13T07:40:00.333Z,7.83
2023-02-13T07:42:27.743Z,6.43
2023-02-13T07:44:55.207Z,7.53
2023-02-13T07:47:22.569Z,7.13
2023-02-13T07:49:49.979Z,7.40
2023-02-13T07:52:17.331Z,5.67
2023-02-13T07:54:47.790Z,6.23
2023-02-13T07:57:16.530Z,5.50
2023-02-13T07:59:44.009Z,6.00
2023-02-13T08:02:15.749Z,4.50
2023-02-13T08:04:46.577Z,5.10
2023-02-13T08:07:18.207Z,6.27
2023-02-13T08:10:04.633Z,6.70
2023-02-13T08:12:35.061Z,7.43
2023-02-13T08:15:02.880Z,7.33
2023-02-13T08:17:30.313Z,7.07
2023-02-13T08:19:57.886Z,7.27
2023-02-13T08:22:25.589Z,5.10
2023-02-13T08:24:53.054Z,6.87
2023-02-13T08:27:20.519Z,7.87
2023-02-13T08:29:50.731Z,5.90
2023-02-13T08:32:18.792Z,5.60
2023-02-13T08:34:46.241Z,6.67
2023-02-13T08:37:13.653Z,6.43
2023-02-13T08:39:41.070Z,6.23
2023-02-13T08:42:08.590Z,6.73
2023-02-13T08:44:36.603Z,6.37
2023-02-13T08:47:04.192Z,4.63
2023-02-13T08:49:31.686Z,6.00
2023-02-13T08:51:59.823Z,4.70
2023-02-13T08:54:27.872Z,5.47
2023-02-13T08:56:57.207Z,7.07
2023-02-13T08:59:25.116Z,5.63
2023-02-13T09:01:52.499Z,6.33
2023-02-13T09:04:19.598Z,5.20
2023-02-13T09:06:47.027Z,7.50
2023-02-13T09:09:14.416Z,6.17
2023-02-13T09:11:41.791Z,6.37
2023-02-13T09:14:09.173Z,7.33
2023-02-13T09:16:36.555Z,7.17
2023-02-13T09:19:04.359Z,9.20
2023-02-13T09:21:31.736Z,5.53
2023-02-13T09:23:59.084Z,6.33
2023-02-13T09:26:26.493Z,8.03
2023-02-13T09:28:53.894Z,8.73
2023-02-13T09:31:21.785Z,7.47
2023-02-13T09:33:50.354Z,7.70
2023-02-13T09:36:24.100Z,8.17
2023-02-13T09:38:56.970Z,6.73
2023-02-13T09:41:38.058Z,7.67
2023-02-13T09:44:39.099Z,7.40
2023-02-13T09:47:09.989Z,7.33
2023-02-13T09:49:42.309Z,6.87
2023-02-13T09:54:37.212Z,7.73
2023-02-13T09:57:30.151Z,7.17
2023-02-13T10:00:03.771Z,6.83
2023-02-13T10:02:54.823Z,8.67
2023-02-13T10:05:49.440Z,7.03
2023-02-13T10:08:29.676Z,7.83
2023-02-13T10:11:33.568Z,6.90
2023-02-13T10:14:27.033Z,5.87
2023-02-13T10:17:09.418Z,5.57
2023-02-13T10:19:44.596Z,6.60
2023-02-13T10:22:34.260Z,6.80
2023-02-13T10:25:18.085Z,6.57
2023-02-13T10:27:50.610Z,5.17
2023-02-13T10:30:50.303Z,5.35
2023-02-13T10:33:24.938Z,5.57
2023-02-13T10:36:10.708Z,5.57
2023-02-13T10:38:46.422Z,5.63
2023-02-13T10:41:28.214Z,5.13
2023-02-13T10:44:28.448Z,5.53
2023-02-13T10:47:04.120Z,5.13
2023-02-13T10:50:05.169Z,4.53
2023-02-13T10:53:01.017Z,6.40
2023-02-13T10:55:34.806Z,4.43
2023-02-13T10:58:18.950Z,5.70
2023-02-13T11:01:30.968Z,4.28
2023-02-13T11:04:19.643Z,4.57
2023-02-13T11:07:00.934Z,5.72
2023-02-13T11:09:31.028Z,4.40
2023-02-13T11:11:58.392Z,4.03
2023-02-13T11:14:27.213Z,3.97
2023-02-13T11:16:57.597Z,3.88
2023-02-13T11:19:57.820Z,4.50
2023-02-13T11:22:44.984Z,4.22
2023-02-13T11:25:23.289Z,4.30
2023-02-13T11:28:07.759Z,5.10
2023-02-13T11:30:37.598Z,5.00
2023-02-13T11:33:34.055Z,4.85
2023-02-13T11:36:14.151Z,4.68
2023-02-13T11:38:41.595Z,6.13
2023-02-13T11:41:15.417Z,5.15
2023-02-13T11:43:50.694Z,5.82
2023-02-13T11:46:27.899Z,4.25
2023-02-13T11:49:06.952Z,5.18
2023-02-13T11:51:44.668Z,5.00
2023-02-13T11:54:42.924Z,5.50
2023-02-13T11:57:23.597Z,5.32
2023-02-13T11:59:53.201Z,4.70
2023-02-13T12:02:27.992Z,4.13
2023-02-13T12:05:27.159Z,3.92
2023-02-13T12:08:01.227Z,3.97
2023-02-13T12:10:33.532Z,4.03
2023-02-13T12:13:38.894Z,3.78
2023-02-13T12:16:28.324Z,3.47
2023-02-13T12:19:01.391Z,4.40
2023-02-13T12:21:48.555Z,4.30
2023-02-13T12:24:49.745Z,4.30
2023-02-13T12:27:49.826Z,3.25
2023-02-13T12:30:35.149Z,4.03
2023-02-13T12:33:35.558Z,5.03
2023-02-13T12:36:19.406Z,3.97
2023-02-13T12:39:28.556Z,3.20
2023-02-13T12:42:05.956Z,4.03
2023-02-13T12:45:16.246Z,3.65
2023-02-13T12:48:04.439Z,3.88
2023-02-13T12:51:07.936Z,3.45
2023-02-13T12:53:47.565Z,3.80
2023-02-13T12:56:39.157Z,3.78
2023-02-13T12:59:33.208Z,3.10
2023-02-13T13:02:20.139Z,3.00
2023-02-13T13:05:17.336Z,2.97
2023-02-13T13:07:57.164Z,2.92
2023-02-13T13:11:05.494Z,2.70
2023-02-13T13:13:35.625Z,2.88
2023-02-13T13:16:25.819Z,3.60
2023-02-13T13:19:01.954Z,3.10
2023-02-13T13:21:37.621Z,3.30
2023-02-13T13:24:28.826Z,3.47
2023-02-13T13:26:57.365Z,3.28
2023-02-13T13:29:27.754Z,3.53
2023-02-13T13:32:01.275Z,3.17
2023-02-13T13:34:30.511Z,3.40
2023-02-13T13:37:30.524Z,3.92
2023-02-13T13:40:32.007Z,3.10
2023-02-13T13:43:18.270Z,2.97
2023-02-13T13:46:15.050Z,2.97
2023-02-13T13:49:14.001Z,3.03
2023-02-13T13:51:41.408Z,2.83
2023-02-13T13:54:08.677Z,2.92
2023-02-13T13:57:06.682Z,3.25
2023-02-13T13:59:34.061Z,3.15
2023-02-13T14:02:19.496Z,3.05
2023-02-13T14:05:30.623Z,3.00
2023-02-13T14:08:44.722Z,2.75
2023-02-13T14:11:42.941Z,2.45
2023-02-13T14:14:35.732Z,3.33
2023-02-13T14:19:39.662Z,2.55
2023-02-13T14:22:19.570Z,2.50
2023-02-13T14:24:59.225Z,2.65
2023-02-13T14:27:32.514Z,2.72
2023-02-13T14:30:02.285Z,2.42
2023-02-13T14:32:36.545Z,2.90
2023-02-13T14:35:20.682Z,2.45
2023-02-13T14:37:53.082Z,2.33
2023-02-13T14:40:20.604Z,3.13
2023-02-13T14:42:54.708Z,2.55
2023-02-13T14:45:28.302Z,2.35
2023-02-13T14:47:57.498Z,2.30
2023-02-13T14:50:31.307Z,2.90
2023-02-13T14:53:02.066Z,3.08
2023-02-13T14:55:33.968Z,2.20
2023-02-13T14:58:28.649Z,2.45
2023-02-13T15:01:04.069Z,2.95
2023-02-13T15:03:34.924Z,2.83
2023-02-13T15:06:13.000Z,2.55
2023-02-13T15:08:49.492Z,2.40
2023-02-13T15:11:48.427Z,2.65
2023-02-13T15:14:32.312Z,2.80
2023-02-13T15:17:16.596Z,2.55
2023-02-13T15:19:51.498Z,2.83
2023-02-13T15:22:21.683Z,2.75
2023-02-13T15:24:50.288Z,1.73
2023-02-13T15:27:31.680Z,2.83
2023-02-13T15:30:21.609Z,3.05
2023-02-13T15:32:59.924Z,3.08
2023-02-13T15:35:37.175Z,2.83
2023-02-13T15:38:30.747Z,3.17
2023-02-13T15:41:04.732Z,3.17
2023-02-13T15:43:33.247Z,2.55
2023-02-13T15:46:29.697Z,3.30
2023-02-13T15:49:01.598Z,2.78
2023-02-13T15:51:30.794Z,3.00
2023-02-13T15:54:22.097Z,3.33
2023-02-13T15:56:51.101Z,3.42
2023-02-13T15:59:19.814Z,4.18
2023-02-13T16:01:48.024Z,3.15
2023-02-13T16:04:18.077Z,2.63
2023-02-13T16:06:46.915Z,3.30
2023-02-13T16:09:33.263Z,3.15
2023-02-13T16:12:17.119Z,2.63
2023-02-13T16:14:51.896Z,2.83
2023-02-13T16:17:31.565Z,3.00
2023-02-13T16:20:14.144Z,2.72
2023-02-13T16:22:53.365Z,3.17
2023-02-13T16:25:33.115Z,3.42
2023-02-13T16:28:17.315Z,2.50
2023-02-13T16:30:51.279Z,3.00
2023-02-13T16:33:30.088Z,2.47
2023-02-13T16:36:10.456Z,2.50
2023-02-13T16:38:50.578Z,2.85
2023-02-13T16:41:26.189Z,3.30
2023-02-13T16:44:06.527Z,2.97
2023-02-13T16:46:41.735Z,2.40
2023-02-13T16:49:09.301Z,3.63
2023-02-13T16:51:48.731Z,3.08
2023-02-13T16:54:25.458Z,3.25
2023-02-13T16:56:55.747Z,2.60
2023-02-13T16:59:46.796Z,3.17
2023-02-13T17:02:17.214Z,3.83
2023-02-13T17:04:50.739Z,3.78
2023-02-13T17:07:25.247Z,4.20
2023-02-13T17:09:55.217Z,3.35
2023-02-13T17:12:23.001Z,3.15
2023-02-13T17:14:50.353Z,3.38
2023-02-13T17:17:21.076Z,4.43
2023-02-13T17:19:49.137Z,4.30
2023-02-13T17:22:39.640Z,3.40
2023-02-13T17:25:24.222Z,3.85
2023-02-13T17:27:57.227Z,3.38
2023-02-13T17:30:31.243Z,3.47
2023-02-13T17:33:07.629Z,3.38
2023-02-13T17:35:35.476Z,4.05
2023-02-13T17:38:02.941Z,3.75
2023-02-13T17:40:31.882Z,4.57
2023-02-13T17:43:02.028Z,3.73
2023-02-13T17:45:32.583Z,3.67
2023-02-13T17:47:59.937Z,4.03
2023-02-13T17:50:29.507Z,3.58
2023-02-13T17:52:57.711Z,5.03
2023-02-13T17:55:28.467Z,3.97
2023-02-13T17:57:57.321Z,4.30
2023-02-13T18:00:28.049Z,3.83
2023-02-13T18:02:55.800Z,3.85
2023-02-13T18:05:23.169Z,4.53
2023-02-13T18:07:50.472Z,4.60
2023-02-13T18:10:24.857Z,4.65
2023-02-13T18:12:53.484Z,4.43
2023-02-13T18:15:21.159Z,4.40
2023-02-13T18:17:48.498Z,4.93
2023-02-13T18:20:20.492Z,4.72
2023-02-13T18:22:50.521Z,5.65
2023-02-13T18:25:19.329Z,4.32
2023-02-13T18:27:47.051Z,4.30
2023-02-13T18:30:18.213Z,4.22
2023-02-13T18:32:45.893Z,3.73
2023-02-13T18:35:13.258Z,4.43
2023-02-13T18:37:40.700Z,4.25
2023-02-13T18:40:08.828Z,4.50
2023-02-13T18:42:36.342Z,4.22
2023-02-13T18:45:04.487Z,3.80
2023-02-13T18:47:31.412Z,4.53
2023-02-13T18:49:58.306Z,4.40
2023-02-13T18:52:25.858Z,4.20
2023-02-13T18:54:53.156Z,4.28
2023-02-13T18:57:20.431Z,4.38
2023-02-13T18:59:47.922Z,4.22
2023-02-13T19:02:15.321Z,3.63
2023-02-13T19:04:42.625Z,5.10
2023-02-13T19:07:09.895Z,4.68
2023-02-13T19:09:40.216Z,4.47
2023-02-13T19:12:08.220Z,5.03
2023-02-13T19:14:35.602Z,5.60
2023-02-13T19:17:03.025Z,4.55
2023-02-13T19:19:30.327Z,5.72
2023-02-13T19:21:57.667Z,5.70
2023-02-13T19:24:25.002Z,5.13
2023-02-13T19:26:52.266Z,5.28
2023-02-13T19:29:22.266Z,5.72
2023-02-13T19:31:49.802Z,4.85
2023-02-13T19:34:17.460Z,4.38
2023-02-13T19:36:44.729Z,5.45
2023-02-13T19:39:12.272Z,5.68
2023-02-13T19:41:40.811Z,5.80
2023-02-13T19:44:08.687Z,5.63
2023-02-13T19:46:36.504Z,4.80
2023-02-13T19:49:04.092Z,4.90
2023-02-13T19:51:33.828Z,6.38
2023-02-13T19:54:07.005Z,5.38
2023-02-13T19:56:38.831Z,5.43
2023-02-13T19:59:07.238Z,5.75
2023-02-13T20:01:34.639Z,5.05
2023-02-13T20:04:02.121Z,4.78
2023-02-13T20:06:36.121Z,6.35
2023-02-13T20:09:12.208Z,5.03
2023-02-13T20:11:43.420Z,4.68
2023-02-13T20:14:14.776Z,4.60
2023-02-13T20:16:42.880Z,5.45
2023-02-13T20:19:12.097Z,4.07
2023-02-13T20:21:41.551Z,4.82
2023-02-13T20:24:09.913Z,5.20
2023-02-13T20:26:37.791Z,5.25
2023-02-13T20:29:05.624Z,4.97
2023-02-13T20:31:34.355Z,5.65
2023-02-13T20:34:02.003Z,5.78
2023-02-13T20:36:31.343Z,4.68
2023-02-13T20:39:02.186Z,6.65
2023-02-13T20:41:32.764Z,5.28
2023-02-13T20:44:07.244Z,5.72
2023-02-13T20:46:38.992Z,4.82
2023-02-13T20:49:06.608Z,6.97
2023-02-13T20:51:34.256Z,5.03
2023-02-13T20:54:01.636Z,6.13
2023-02-13T20:56:29.913Z,6.40
2023-02-13T20:58:59.860Z,5.57
2023-02-13T21:01:32.504Z,7.15
2023-02-13T21:04:00.098Z,6.00
2023-02-13T21:06:34.417Z,5.77
2023-02-13T21:09:03.436Z,5.88
2023-02-13T21:11:30.960Z,7.35
2023-02-13T21:13:58.978Z,6.18
2023-02-13T21:16:29.236Z,6.43
2023-02-13T21:18:59.964Z,5.95
2023-02-13T21:21:31.546Z,5.70
2023-02-13T21:24:08.085Z,4.28
2023-02-13T21:26:35.943Z,4.47
2023-02-13T21:29:03.771Z,5.88
2023-02-13T21:31:38.440Z,4.20
2023-02-13T21:34:08.559Z,4.60
2023-02-13T21:36:40.072Z,3.78
2023-02-13T21:39:09.936Z,4.70
2023-02-13T21:41:38.872Z,4.78
2023-02-13T21:44:06.262Z,5.27
2023-02-13T21:46:33.718Z,5.03
2023-02-13T21:49:04.277Z,6.03
2023-02-13T21:51:34.384Z,6.57
2023-02-13T21:54:02.304Z,4.43
2023-02-13T21:56:35.869Z,5.18
2023-02-13T21:59:03.311Z,5.00
2023-02-13T22:01:44.952Z,6.97
2023-02-13T22:04:12.241Z,6.23
2023-02-13T22:06:40.513Z,6.67
2023-02-13T22:09:11.604Z,6.77
2023-02-13T22:11:39.749Z,5.43
2023-02-13T22:14:10.790Z,6.73
2023-02-13T22:16:39.155Z,6.07
2023-02-13T22:19:07.350Z,6.13
2023-02-13T22:21:36.676Z,5.67
2023-02-13T22:24:04.344Z,4.40
2023-02-13T22:26:40.301Z,6.22
2023-02-13T22:29:11.411Z,5.07
2023-02-13T22:31:38.935Z,6.30
2023-02-13T22:34:06.682Z,6.32
2023-02-13T22:36:39.882Z,6.30
2023-02-13T22:39:09.015Z,5.37
2023-02-13T22:41:36.508Z,4.77
2023-02-13T22:44:05.514Z,4.70
2023-02-13T22:46:34.390Z,5.20
2023-02-13T22:49:07.274Z,4.97
2023-02-13T22:51:36.702Z,5.53
2023-02-13T22:54:05.221Z,5.40
2023-02-13T22:56:33.391Z,6.23
2023-02-13T22:59:00.736Z,4.90
2023-02-13T23:01:29.419Z,6.13
2023-02-13T23:03:57.426Z,6.03
2023-02-13T23:06:25.275Z,6.43
2023-02-13T23:08:53.434Z,4.80
2023-02-13T23:11:42.679Z,5.60
2023-02-13T23:14:10.562Z,5.37
2023-02-13T23:17:00.351Z,5.83
2023-02-13T23:19:29.576Z,4.30
2023-02-13T23:21:57.017Z,5.67
2023-02-13T23:24:24.347Z,6.20
2023-02-13T23:26:51.713Z,5.10
2023-02-13T23:29:19.381Z,5.77
2023-02-13T23:31:46.855Z,6.37
2023-02-13T23:34:14.893Z,5.80
2023-02-13T23:36:42.193Z,5.30
2023-02-13T23:39:09.691Z,4.77
2023-02-13T23:41:36.961Z,5.90
2023-02-13T23:44:04.459Z,5.07
2023-02-13T23:46:31.882Z,4.47
2023-02-13T23:48:59.266Z,6.37
2023-02-13T23:51:26.563Z,5.50
2023-02-13T23:53:56.362Z,6.13
2023-02-13T23:56:25.272Z,4.43
2023-02-13T23:58:52.862Z,4.83
